No.8 Ooshima Maru — JI3698 — position and weather

sailwx.info

Track history (hours):
 
Tides and Currents Weather Stations Pressure Air Temp Water Temp Dewpoint Dewpoint Depression Visibility Wind Speed Wind Dir Waves Ship Positions

No.8 Ooshima Maru

Last reported at 2018-Jan-19 07:26 UTC. Time now 2018-Jan-20 01:16 UTC.
Position N 34°38' E 134°55'.

Length 44 m.

Type: Tanker. MMSI: 431301609.

Date/timePositionNaut miles runAvg speedWind from/ knotsBaromVisibWave heightAir tempDewpointWater temp
2018-Jan-19 07:26N 34°38' E 134°55'4 9.3
2018-Jan-19 07:00N 34°38' E 134°60'4 8.2
2018-Jan-19 06:29N 34°37' E 135°05'5 9.5
2018-Jan-19 06:00N 34°36' E 135°10'510.0
2018-Jan-19 05:30N 34°35' E 135°16'510.3
2018-Jan-19 05:00N 34°34' E 135°22'3 5.5
2018-Jan-19 04:28N 34°33' E 135°26'0 0.0
2018-Jan-19 03:59N 34°33' E 135°26'0 0.0
2018-Jan-19 03:26N 34°33' E 135°26'3 6.0
2018-Jan-19 03:00N 34°35' E 135°24'4 9.1
2018-Jan-19 02:30N 34°39' E 135°28'0 0.0
2018-Jan-18 10:29N 34°39' E 135°28'1 2.1
2018-Jan-18 10:00N 34°39' E 135°26'2 3.6
2018-Jan-18 09:30N 34°39' E 135°24'0 0.1
2018-Jan-18 09:00N 34°39' E 135°24'0 0.0
2018-Jan-18 08:29N 34°39' E 135°24'0 0.0
2018-Jan-18 07:58N 34°39' E 135°24'1 2.0
2018-Jan-18 07:31N 34°39' E 135°25'2 3.6
2018-Jan-18 07:00N 34°39' E 135°28'0 0.0
2018-Jan-18 06:30N 34°39' E 135°28'0 0.0
2018-Jan-18 06:00N 34°39' E 135°28'0 0.0
2018-Jan-18 05:30N 34°39' E 135°28'0 0.0
2018-Jan-18 05:00N 34°39' E 135°28'0 0.0
2018-Jan-18 04:30N 34°39' E 135°28'0 0.0
2018-Jan-18 03:55N 34°39' E 135°28'0 0.0
2018-Jan-18 03:28N 34°39' E 135°28'0 0.0
2018-Jan-18 03:00N 34°39' E 135°28'1 2.3
2018-Jan-18 02:30N 34°38' E 135°27'4 8.4
2018-Jan-18 02:00N 34°34' E 135°24'2 3.5
2018-Jan-18 01:29N 34°33' E 135°26'0 0.0
2018-Jan-18 00:59N 34°33' E 135°26'3 2.8
2018-Jan-17 23:59N 34°36' E 135°24'010.6
2018-Jan-17 23:57N 34°36' E 135°24'  
2018-Jan-12 04:38N 34°11' E 135°05'211.5
2018-Jan-12 04:26N 34°13' E 135°04'511.2
2018-Jan-12 04:01N 34°18' E 135°04'611.3
2018-Jan-12 03:30N 34°23' E 135°08'611.1
2018-Jan-12 03:01N 34°27' E 135°13'510.6
2018-Jan-12 02:30N 34°31' E 135°18'610.5
2018-Jan-12 01:58N 34°34' E 135°22'510.0
2018-Jan-12 01:30N 34°38' E 135°27'0 0.9
2018-Jan-12 00:58N 34°38' E 135°26'0 0.0
2018-Jan-12 00:28N 34°38' E 135°26'0 0.0
2018-Jan-11 23:58N 34°38' E 135°26'0 0.0
2018-Jan-11 23:29N 34°38' E 135°26'1 1.4
2018-Jan-11 23:00N 34°39' E 135°27'1 1.0
2018-Jan-11 22:28N 34°39' E 135°28'0 0.0
2018-Jan-11 07:52N 34°39' E 135°28'0 0.0
2018-Jan-11 07:28N 34°39' E 135°28'2 4.1
2018-Jan-11 07:00N 34°37' E 135°26'4 8.0
2018-Jan-11 06:30N 34°33' E 135°24'1 2.3
2018-Jan-11 05:59N 34°33' E 135°26'0 0.0
2018-Jan-11 05:29N 34°33' E 135°26'0 0.0
2018-Jan-11 04:59N 34°33' E 135°26'4 8.0
2018-Jan-11 04:29N 34°35' E 135°22'511.3
2018-Jan-11 04:00N 34°40' E 135°19'3 4.9
2018-Jan-11 03:29N 34°42' E 135°17'0 0.0
2018-Jan-11 02:59N 34°42' E 135°17'0 0.0
2018-Jan-11 02:29N 34°42' E 135°17'0 0.0
2018-Jan-11 01:59N 34°42' E 135°17'1 1.1
2018-Jan-11 01:30N 34°42' E 135°17'2 3.1
2018-Jan-11 01:00N 34°41' E 135°18'510.0
2018-Jan-11 00:30N 34°36' E 135°21'5 9.2
2018-Jan-11 00:00N 34°33' E 135°25'0 0.4
2018-Jan-10 23:26N 34°33' E 135°26'0 0.0
2018-Jan-10 22:59N 34°33' E 135°26'0 0.0
2018-Jan-10 22:30N 34°33' E 135°26'3 5.4
2018-Jan-10 22:00N 34°35' E 135°24'4 8.9
2018-Jan-10 21:30N 34°39' E 135°28'0 0.2
2018-Jan-10 20:56N 34°39' E 135°28'0 0.0
2018-Jan-10 20:29N 34°39' E 135°28'0 0.0
2018-Jan-09 09:59N 34°39' E 135°28'0 0.8
2018-Jan-09 09:30N 34°39' E 135°27'510.6
2018-Jan-09 09:00N 34°41' E 135°21'611.3
2018-Jan-09 08:30N 34°40' E 135°14'1 1.6
2018-Jan-09 07:58N 34°40' E 135°13'0 0.0
2018-Jan-09 07:28N 34°40' E 135°13'  
Track history (hours):
 
Tides and Currents Weather Stations Pressure Air Temp Water Temp Dewpoint Dewpoint Depression Visibility Wind Speed Wind Dir Waves Ship Positions

No.8 Ooshima Maru

Last reported at 2018-Jan-19 07:26 UTC. Time now 2018-Jan-20 01:16 UTC.
Position N 34°38' E 134°55'.

Length 44 m.

Type: Tanker. MMSI: 431301609.

Date/timePositionNaut miles runAvg speedWind from/ knotsBaromVisibWave heightAir tempDewpointWater temp
2018-Jan-19 07:26N 34°38' E 134°55'4 9.3
2018-Jan-19 07:00N 34°38' E 134°60'4 8.2
2018-Jan-19 06:29N 34°37' E 135°05'5 9.5
2018-Jan-19 06:00N 34°36' E 135°10'510.0
2018-Jan-19 05:30N 34°35' E 135°16'510.3
2018-Jan-19 05:00N 34°34' E 135°22'3 5.5
2018-Jan-19 04:28N 34°33' E 135°26'0 0.0
2018-Jan-19 03:59N 34°33' E 135°26'0 0.0
2018-Jan-19 03:26N 34°33' E 135°26'3 6.0
2018-Jan-19 03:00N 34°35' E 135°24'4 9.1
2018-Jan-19 02:30N 34°39' E 135°28'0 0.0
2018-Jan-18 10:29N 34°39' E 135°28'1 2.1
2018-Jan-18 10:00N 34°39' E 135°26'2 3.6
2018-Jan-18 09:30N 34°39' E 135°24'0 0.1
2018-Jan-18 09:00N 34°39' E 135°24'0 0.0
2018-Jan-18 08:29N 34°39' E 135°24'0 0.0
2018-Jan-18 07:58N 34°39' E 135°24'1 2.0
2018-Jan-18 07:31N 34°39' E 135°25'2 3.6
2018-Jan-18 07:00N 34°39' E 135°28'0 0.0
2018-Jan-18 06:30N 34°39' E 135°28'0 0.0
2018-Jan-18 06:00N 34°39' E 135°28'0 0.0
2018-Jan-18 05:30N 34°39' E 135°28'0 0.0
2018-Jan-18 05:00N 34°39' E 135°28'0 0.0
2018-Jan-18 04:30N 34°39' E 135°28'0 0.0
2018-Jan-18 03:55N 34°39' E 135°28'0 0.0
2018-Jan-18 03:28N 34°39' E 135°28'0 0.0
2018-Jan-18 03:00N 34°39' E 135°28'1 2.3
2018-Jan-18 02:30N 34°38' E 135°27'4 8.4
2018-Jan-18 02:00N 34°34' E 135°24'2 3.5
2018-Jan-18 01:29N 34°33' E 135°26'0 0.0
2018-Jan-18 00:59N 34°33' E 135°26'3 2.8
2018-Jan-17 23:59N 34°36' E 135°24'010.6
2018-Jan-17 23:57N 34°36' E 135°24'  
2018-Jan-12 04:38N 34°11' E 135°05'211.5
2018-Jan-12 04:26N 34°13' E 135°04'511.2
2018-Jan-12 04:01N 34°18' E 135°04'611.3
2018-Jan-12 03:30N 34°23' E 135°08'611.1
2018-Jan-12 03:01N 34°27' E 135°13'510.6
2018-Jan-12 02:30N 34°31' E 135°18'610.5
2018-Jan-12 01:58N 34°34' E 135°22'510.0
2018-Jan-12 01:30N 34°38' E 135°27'0 0.9
2018-Jan-12 00:58N 34°38' E 135°26'0 0.0
2018-Jan-12 00:28N 34°38' E 135°26'0 0.0
2018-Jan-11 23:58N 34°38' E 135°26'0 0.0
2018-Jan-11 23:29N 34°38' E 135°26'1 1.4
2018-Jan-11 23:00N 34°39' E 135°27'1 1.0
2018-Jan-11 22:28N 34°39' E 135°28'0 0.0
2018-Jan-11 07:52N 34°39' E 135°28'0 0.0
2018-Jan-11 07:28N 34°39' E 135°28'2 4.1
2018-Jan-11 07:00N 34°37' E 135°26'4 8.0
2018-Jan-11 06:30N 34°33' E 135°24'1 2.3
2018-Jan-11 05:59N 34°33' E 135°26'0 0.0
2018-Jan-11 05:29N 34°33' E 135°26'0 0.0
2018-Jan-11 04:59N 34°33' E 135°26'4 8.0
2018-Jan-11 04:29N 34°35' E 135°22'511.3
2018-Jan-11 04:00N 34°40' E 135°19'3 4.9
2018-Jan-11 03:29N 34°42' E 135°17'0 0.0
2018-Jan-11 02:59N 34°42' E 135°17'0 0.0
2018-Jan-11 02:29N 34°42' E 135°17'0 0.0
2018-Jan-11 01:59N 34°42' E 135°17'1 1.1
2018-Jan-11 01:30N 34°42' E 135°17'2 3.1
2018-Jan-11 01:00N 34°41' E 135°18'510.0
2018-Jan-11 00:30N 34°36' E 135°21'5 9.2
2018-Jan-11 00:00N 34°33' E 135°25'0 0.4
2018-Jan-10 23:26N 34°33' E 135°26'0 0.0
2018-Jan-10 22:59N 34°33' E 135°26'0 0.0
2018-Jan-10 22:30N 34°33' E 135°26'3 5.4
2018-Jan-10 22:00N 34°35' E 135°24'4 8.9
2018-Jan-10 21:30N 34°39' E 135°28'0 0.2
2018-Jan-10 20:56N 34°39' E 135°28'0 0.0
2018-Jan-10 20:29N 34°39' E 135°28'0 0.0
2018-Jan-09 09:59N 34°39' E 135°28'0 0.8
2018-Jan-09 09:30N 34°39' E 135°27'510.6
2018-Jan-09 09:00N 34°41' E 135°21'611.3
2018-Jan-09 08:30N 34°40' E 135°14'1 1.6
2018-Jan-09 07:58N 34°40' E 135°13'0 0.0
2018-Jan-09 07:28N 34°40' E 135°13'  

Dump ship's entire track history